sensor_id;sensor_type;location;lat;lon;timestamp;temperature;humidity
58983;DHT22;44771;49.982;8.560;2023-01-29T00:01:46;-0.50;99.90
58983;DHT22;44771;49.982;8.560;2023-01-29T00:06:48;-0.70;99.90
58983;DHT22;44771;49.982;8.560;2023-01-29T00:11:50;-0.70;99.90
58983;DHT22;44771;49.982;8.560;2023-01-29T00:16:53;-0.70;99.90
58983;DHT22;44771;49.982;8.560;2023-01-29T00:21:55;-0.60;99.90
58983;DHT22;44771;49.982;8.560;2023-01-29T00:26:57;-0.70;99.90
58983;DHT22;44771;49.982;8.560;2023-01-29T00:32:00;-0.70;99.90
58983;DHT22;44771;49.982;8.560;2023-01-29T00:37:02;-0.70;99.90
58983;DHT22;44771;49.982;8.560;2023-01-29T00:42:04;-0.70;99.90
58983;DHT22;44771;49.982;8.560;2023-01-29T00:47:08;-0.70;99.90
58983;DHT22;44771;49.982;8.560;2023-01-29T00:52:10;-0.70;99.90
58983;DHT22;44771;49.982;8.560;2023-01-29T00:57:12;-0.70;99.90
58983;DHT22;44771;49.982;8.560;2023-01-29T01:02:15;-0.70;99.90
58983;DHT22;44771;49.982;8.560;2023-01-29T01:07:18;-0.70;99.90
58983;DHT22;44771;49.982;8.560;2023-01-29T01:12:19;-0.70;99.90
58983;DHT22;44771;49.982;8.560;2023-01-29T01:17:23;-0.70;99.90
58983;DHT22;44771;49.982;8.560;2023-01-29T01:22:31;-0.80;99.90
58983;DHT22;44771;49.982;8.560;2023-01-29T01:27:40;-0.80;99.90
58983;DHT22;44771;49.982;8.560;2023-01-29T01:32:43;-0.80;99.90
58983;DHT22;44771;49.982;8.560;2023-01-29T01:37:45;-0.90;99.90
58983;DHT22;44771;49.982;8.560;2023-01-29T01:42:48;-0.90;99.90
58983;DHT22;44771;49.982;8.560;2023-01-29T01:47:55;-0.90;99.90
58983;DHT22;44771;49.982;8.560;2023-01-29T01:53:00;-1.00;99.90
58983;DHT22;44771;49.982;8.560;2023-01-29T01:58:07;-1.00;99.90
58983;DHT22;44771;49.982;8.560;2023-01-29T02:03:11;-1.10;99.90
58983;DHT22;44771;49.982;8.560;2023-01-29T02:08:14;-1.20;99.90
58983;DHT22;44771;49.982;8.560;2023-01-29T02:13:18;-1.20;99.90
58983;DHT22;44771;49.982;8.560;2023-01-29T02:18:22;-1.30;99.90
58983;DHT22;44771;49.982;8.560;2023-01-29T02:23:45;-1.40;99.90
58983;DHT22;44771;49.982;8.560;2023-01-29T02:28:57;-1.30;99.90
58983;DHT22;44771;49.982;8.560;2023-01-29T02:34:10;-1.40;99.90
58983;DHT22;44771;49.982;8.560;2023-01-29T02:39:20;-1.50;99.90
58983;DHT22;44771;49.982;8.560;2023-01-29T02:44:32;-1.70;99.90
58983;DHT22;44771;49.982;8.560;2023-01-29T02:49:39;-1.80;99.90
58983;DHT22;44771;49.982;8.560;2023-01-29T02:54:49;-1.90;99.90
58983;DHT22;44771;49.982;8.560;2023-01-29T03:00:19;-1.90;99.90
58983;DHT22;44771;49.982;8.560;2023-01-29T03:05:25;-1.90;99.90
58983;DHT22;44771;49.982;8.560;2023-01-29T03:10:35;-1.90;99.90
58983;DHT22;44771;49.982;8.560;2023-01-29T03:15:43;-1.80;99.90
58983;DHT22;44771;49.982;8.560;2023-01-29T03:20:49;-1.70;99.90
58983;DHT22;44771;49.982;8.560;2023-01-29T03:25:57;-1.60;99.90
58983;DHT22;44771;49.982;8.560;2023-01-29T03:31:03;-1.60;99.90
58983;DHT22;44771;49.982;8.560;2023-01-29T03:36:08;-1.40;99.90
58983;DHT22;44771;49.982;8.560;2023-01-29T03:41:17;-1.50;99.90
58983;DHT22;44771;49.982;8.560;2023-01-29T03:46:26;-1.50;99.90
58983;DHT22;44771;49.982;8.560;2023-01-29T03:51:34;-1.50;99.90
58983;DHT22;44771;49.982;8.560;2023-01-29T03:56:48;-1.50;99.90
58983;DHT22;44771;49.982;8.560;2023-01-29T04:01:58;-1.50;99.90
58983;DHT22;44771;49.982;8.560;2023-01-29T04:07:05;-1.60;99.90
58983;DHT22;44771;49.982;8.560;2023-01-29T04:12:11;-1.60;99.90
58983;DHT22;44771;49.982;8.560;2023-01-29T04:17:22;-1.70;99.90
58983;DHT22;44771;49.982;8.560;2023-01-29T04:22:30;-1.80;99.90
58983;DHT22;44771;49.982;8.560;2023-01-29T04:27:42;-1.90;99.90
58983;DHT22;44771;49.982;8.560;2023-01-29T04:32:56;-2.10;99.90
58983;DHT22;44771;49.982;8.560;2023-01-29T04:38:10;-2.20;99.90
58983;DHT22;44771;49.982;8.560;2023-01-29T04:43:31;-2.30;99.90
58983;DHT22;44771;49.982;8.560;2023-01-29T04:49:22;-2.50;99.90
58983;DHT22;44771;49.982;8.560;2023-01-29T04:55:40;-2.60;99.90
58983;DHT22;44771;49.982;8.560;2023-01-29T06:27:52;-2.80;99.90
58983;DHT22;44771;49.982;8.560;2023-01-29T06:33:07;-2.80;99.90
58983;DHT22;44771;49.982;8.560;2023-01-29T06:38:11;-2.70;99.90
58983;DHT22;44771;49.982;8.560;2023-01-29T06:43:15;-2.60;99.90
58983;DHT22;44771;49.982;8.560;2023-01-29T06:48:20;-2.50;99.90
58983;DHT22;44771;49.982;8.560;2023-01-29T06:53:24;-2.50;99.90
58983;DHT22;44771;49.982;8.560;2023-01-29T06:58:31;-2.40;99.90
58983;DHT22;44771;49.982;8.560;2023-01-29T07:03:34;-2.40;99.90
58983;DHT22;44771;49.982;8.560;2023-01-29T07:08:37;-2.20;99.90
58983;DHT22;44771;49.982;8.560;2023-01-29T07:13:41;-2.30;99.90
58983;DHT22;44771;49.982;8.560;2023-01-29T07:18:43;-2.50;99.90
58983;DHT22;44771;49.982;8.560;2023-01-29T07:23:45;-2.50;99.90
58983;DHT22;44771;49.982;8.560;2023-01-29T07:28:48;-2.50;99.90
58983;DHT22;44771;49.982;8.560;2023-01-29T07:33:51;-2.50;99.90
58983;DHT22;44771;49.982;8.560;2023-01-29T07:38:53;-2.40;99.90
58983;DHT22;44771;49.982;8.560;2023-01-29T07:43:58;-2.30;99.90
58983;DHT22;44771;49.982;8.560;2023-01-29T07:49:00;-2.30;99.90
58983;DHT22;44771;49.982;8.560;2023-01-29T07:54:02;-2.20;99.90
58983;DHT22;44771;49.982;8.560;2023-01-29T07:59:06;-2.00;99.90
58983;DHT22;44771;49.982;8.560;2023-01-29T08:04:08;-1.90;99.90
58983;DHT22;44771;49.982;8.560;2023-01-29T08:09:10;-1.60;99.90
58983;DHT22;44771;49.982;8.560;2023-01-29T08:14:14;-1.50;99.90
58983;DHT22;44771;49.982;8.560;2023-01-29T08:19:16;-1.50;99.90
58983;DHT22;44771;49.982;8.560;2023-01-29T08:24:18;-1.40;99.90
58983;DHT22;44771;49.982;8.560;2023-01-29T08:29:22;-1.30;99.90
58983;DHT22;44771;49.982;8.560;2023-01-29T08:34:28;-1.20;99.90
58983;DHT22;44771;49.982;8.560;2023-01-29T08:39:34;-1.00;99.90
58983;DHT22;44771;49.982;8.560;2023-01-29T08:44:40;-0.70;99.90
58983;DHT22;44771;49.982;8.560;2023-01-29T08:49:57;-0.30;99.90
58983;DHT22;44771;49.982;8.560;2023-01-29T08:55:08;-0.30;99.90
58983;DHT22;44771;49.982;8.560;2023-01-29T09:05:54;0.00;99.90
58983;DHT22;44771;49.982;8.560;2023-01-29T09:10:57;0.00;99.90
58983;DHT22;44771;49.982;8.560;2023-01-29T09:16:00;-0.10;99.90
58983;DHT22;44771;49.982;8.560;2023-01-29T09:21:09;-0.20;99.90
58983;DHT22;44771;49.982;8.560;2023-01-29T09:26:10;-0.20;99.90
58983;DHT22;44771;49.982;8.560;2023-01-29T09:31:12;-0.40;99.90
58983;DHT22;44771;49.982;8.560;2023-01-29T09:36:16;-0.40;99.90
58983;DHT22;44771;49.982;8.560;2023-01-29T09:41:28;-0.30;99.90
58983;DHT22;44771;49.982;8.560;2023-01-29T09:46:38;-0.40;99.90
58983;DHT22;44771;49.982;8.560;2023-01-29T09:51:45;-0.50;99.90
58983;DHT22;44771;49.982;8.560;2023-01-29T09:56:52;-0.60;99.90
58983;DHT22;44771;49.982;8.560;2023-01-29T10:02:03;-0.60;99.90
58983;DHT22;44771;49.982;8.560;2023-01-29T10:12:54;-0.50;99.90
58983;DHT22;44771;49.982;8.560;2023-01-29T10:18:12;-0.50;99.90
58983;DHT22;44771;49.982;8.560;2023-01-29T10:23:21;-0.40;99.90
58983;DHT22;44771;49.982;8.560;2023-01-29T10:28:27;-0.10;99.90
58983;DHT22;44771;49.982;8.560;2023-01-29T10:33:39;0.00;99.90
58983;DHT22;44771;49.982;8.560;2023-01-29T10:39:01;0.10;99.90
58983;DHT22;44771;49.982;8.560;2023-01-29T10:44:23;0.10;99.90
58983;DHT22;44771;49.982;8.560;2023-01-29T10:49:47;0.10;99.90
58983;DHT22;44771;49.982;8.560;2023-01-29T10:55:01;0.30;99.90
58983;DHT22;44771;49.982;8.560;2023-01-29T11:00:08;0.40;99.90
58983;DHT22;44771;49.982;8.560;2023-01-29T11:05:20;0.70;99.90
58983;DHT22;44771;49.982;8.560;2023-01-29T11:10:25;0.90;99.90
58983;DHT22;44771;49.982;8.560;2023-01-29T11:15:30;1.20;99.90
58983;DHT22;44771;49.982;8.560;2023-01-29T11:20:33;1.30;99.90
58983;DHT22;44771;49.982;8.560;2023-01-29T11:25:36;1.40;99.90
58983;DHT22;44771;49.982;8.560;2023-01-29T11:30:38;1.60;99.90
58983;DHT22;44771;49.982;8.560;2023-01-29T11:35:41;2.10;99.90
58983;DHT22;44771;49.982;8.560;2023-01-29T11:40:45;2.10;99.90
58983;DHT22;44771;49.982;8.560;2023-01-29T11:45:48;1.90;99.90
58983;DHT22;44771;49.982;8.560;2023-01-29T11:50:52;1.60;99.90
58983;DHT22;44771;49.982;8.560;2023-01-29T11:55:56;1.40;99.90
58983;DHT22;44771;49.982;8.560;2023-01-29T12:01:00;1.40;99.90
58983;DHT22;44771;49.982;8.560;2023-01-29T12:06:05;1.60;99.90
58983;DHT22;44771;49.982;8.560;2023-01-29T12:11:24;1.90;99.90
58983;DHT22;44771;49.982;8.560;2023-01-29T12:16:30;2.00;99.90
58983;DHT22;44771;49.982;8.560;2023-01-29T12:21:37;1.80;99.90
58983;DHT22;44771;49.982;8.560;2023-01-29T12:26:49;1.70;99.90
58983;DHT22;44771;49.982;8.560;2023-01-29T12:31:59;1.80;99.90
58983;DHT22;44771;49.982;8.560;2023-01-29T12:37:05;1.60;99.90
58983;DHT22;44771;49.982;8.560;2023-01-29T12:42:15;1.60;99.90
58983;DHT22;44771;49.982;8.560;2023-01-29T12:47:22;1.60;99.90
58983;DHT22;44771;49.982;8.560;2023-01-29T12:52:35;1.70;99.90
58983;DHT22;44771;49.982;8.560;2023-01-29T12:57:44;1.60;99.90
58983;DHT22;44771;49.982;8.560;2023-01-29T13:02:52;1.80;99.90
58983;DHT22;44771;49.982;8.560;2023-01-29T13:08:00;1.80;99.90
58983;DHT22;44771;49.982;8.560;2023-01-29T13:13:11;2.10;99.90
58983;DHT22;44771;49.982;8.560;2023-01-29T13:18:35;1.90;99.90
58983;DHT22;44771;49.982;8.560;2023-01-29T13:23:41;1.60;99.90
58983;DHT22;44771;49.982;8.560;2023-01-29T13:28:46;1.50;99.90
58983;DHT22;44771;49.982;8.560;2023-01-29T13:33:53;1.50;99.90
58983;DHT22;44771;49.982;8.560;2023-01-29T13:39:00;1.20;99.90
58983;DHT22;44771;49.982;8.560;2023-01-29T13:44:08;1.20;99.90
58983;DHT22;44771;49.982;8.560;2023-01-29T13:49:37;1.30;99.90
58983;DHT22;44771;49.982;8.560;2023-01-29T13:54:41;1.70;99.90
58983;DHT22;44771;49.982;8.560;2023-01-29T13:59:53;1.90;99.90
58983;DHT22;44771;49.982;8.560;2023-01-29T14:16:34;1.90;99.90
58983;DHT22;44771;49.982;8.560;2023-01-29T14:21:37;1.90;99.90
58983;DHT22;44771;49.982;8.560;2023-01-29T14:26:43;1.90;99.90
58983;DHT22;44771;49.982;8.560;2023-01-29T14:31:49;1.90;99.90
58983;DHT22;44771;49.982;8.560;2023-01-29T14:36:54;1.80;99.90
58983;DHT22;44771;49.982;8.560;2023-01-29T14:41:57;1.70;99.90
58983;DHT22;44771;49.982;8.560;2023-01-29T14:47:01;1.70;99.90
58983;DHT22;44771;49.982;8.560;2023-01-29T14:52:03;1.60;99.90
58983;DHT22;44771;49.982;8.560;2023-01-29T14:57:08;1.60;99.90
58983;DHT22;44771;49.982;8.560;2023-01-29T15:02:15;1.50;99.90
58983;DHT22;44771;49.982;8.560;2023-01-29T15:07:26;1.30;99.90
58983;DHT22;44771;49.982;8.560;2023-01-29T15:12:33;1.20;99.90
58983;DHT22;44771;49.982;8.560;2023-01-29T15:17:41;1.20;99.90
58983;DHT22;44771;49.982;8.560;2023-01-29T15:22:46;1.10;99.90
58983;DHT22;44771;49.982;8.560;2023-01-29T15:27:48;1.00;99.90
58983;DHT22;44771;49.982;8.560;2023-01-29T15:32:51;0.90;99.90
58983;DHT22;44771;49.982;8.560;2023-01-29T15:38:02;0.80;99.90
58983;DHT22;44771;49.982;8.560;2023-01-29T15:43:18;0.70;99.90
58983;DHT22;44771;49.982;8.560;2023-01-29T15:48:26;0.60;99.90
58983;DHT22;44771;49.982;8.560;2023-01-29T15:53:36;0.40;99.90
58983;DHT22;44771;49.982;8.560;2023-01-29T15:58:38;0.20;99.90
58983;DHT22;44771;49.982;8.560;2023-01-29T16:03:42;0.00;99.90
58983;DHT22;44771;49.982;8.560;2023-01-29T16:08:48;0.00;99.90
58983;DHT22;44771;49.982;8.560;2023-01-29T16:13:51;0.00;99.90
58983;DHT22;44771;49.982;8.560;2023-01-29T16:18:54;-0.20;99.90
58983;DHT22;44771;49.982;8.560;2023-01-29T16:24:04;-0.30;99.90
58983;DHT22;44771;49.982;8.560;2023-01-29T16:29:09;-0.50;99.90
58983;DHT22;44771;49.982;8.560;2023-01-29T16:34:25;-0.70;99.90
58983;DHT22;44771;49.982;8.560;2023-01-29T16:39:30;-0.70;99.90
58983;DHT22;44771;49.982;8.560;2023-01-29T16:44:34;-0.70;99.90
58983;DHT22;44771;49.982;8.560;2023-01-29T16:49:47;-1.00;99.90
58983;DHT22;44771;49.982;8.560;2023-01-29T16:54:50;-1.30;99.90
58983;DHT22;44771;49.982;8.560;2023-01-29T16:59:53;-1.40;99.90
58983;DHT22;44771;49.982;8.560;2023-01-29T17:04:59;-1.70;99.90
58983;DHT22;44771;49.982;8.560;2023-01-29T17:10:04;-1.90;99.90
58983;DHT22;44771;49.982;8.560;2023-01-29T17:15:42;-2.10;99.90
58983;DHT22;44771;49.982;8.560;2023-01-29T17:20:46;-2.30;99.90
58983;DHT22;44771;49.982;8.560;2023-01-29T17:25:48;-2.50;99.90
58983;DHT22;44771;49.982;8.560;2023-01-29T17:30:50;-2.70;99.90
58983;DHT22;44771;49.982;8.560;2023-01-29T17:36:10;-2.80;99.90
58983;DHT22;44771;49.982;8.560;2023-01-29T17:41:17;-2.80;99.90
58983;DHT22;44771;49.982;8.560;2023-01-29T17:46:22;-2.80;99.90
58983;DHT22;44771;49.982;8.560;2023-01-29T17:51:25;-2.50;99.90
58983;DHT22;44771;49.982;8.560;2023-01-29T17:56:27;-2.30;99.90
58983;DHT22;44771;49.982;8.560;2023-01-29T18:01:29;-2.30;99.90
58983;DHT22;44771;49.982;8.560;2023-01-29T18:06:32;-2.40;99.90
58983;DHT22;44771;49.982;8.560;2023-01-29T18:11:34;-2.50;99.90
58983;DHT22;44771;49.982;8.560;2023-01-29T18:16:37;-2.60;99.90
58983;DHT22;44771;49.982;8.560;2023-01-29T18:21:55;-2.90;99.90
58983;DHT22;44771;49.982;8.560;2023-01-29T18:27:29;-3.00;99.90
58983;DHT22;44771;49.982;8.560;2023-01-29T18:32:31;-3.10;99.90
58983;DHT22;44771;49.982;8.560;2023-01-29T18:37:35;-3.10;99.90
58983;DHT22;44771;49.982;8.560;2023-01-29T18:43:06;-3.00;99.90
58983;DHT22;44771;49.982;8.560;2023-01-29T18:48:14;-2.80;99.90
58983;DHT22;44771;49.982;8.560;2023-01-29T19:09:15;-2.00;99.90
58983;DHT22;44771;49.982;8.560;2023-01-29T19:14:18;-2.00;99.90
58983;DHT22;44771;49.982;8.560;2023-01-29T19:19:19;-2.00;99.90
58983;DHT22;44771;49.982;8.560;2023-01-29T19:24:29;-2.00;99.90
58983;DHT22;44771;49.982;8.560;2023-01-29T19:29:33;-2.00;99.90
58983;DHT22;44771;49.982;8.560;2023-01-29T19:34:35;-1.80;99.90
58983;DHT22;44771;49.982;8.560;2023-01-29T19:39:38;-1.80;99.90
58983;DHT22;44771;49.982;8.560;2023-01-29T19:44:44;-1.70;99.90
58983;DHT22;44771;49.982;8.560;2023-01-29T19:49:46;-1.70;99.90
58983;DHT22;44771;49.982;8.560;2023-01-29T19:54:49;-1.60;99.90
58983;DHT22;44771;49.982;8.560;2023-01-29T19:59:51;-1.70;99.90
58983;DHT22;44771;49.982;8.560;2023-01-29T20:04:53;-1.80;99.90
58983;DHT22;44771;49.982;8.560;2023-01-29T20:09:56;-1.70;99.90
58983;DHT22;44771;49.982;8.560;2023-01-29T20:14:57;-1.70;99.90
58983;DHT22;44771;49.982;8.560;2023-01-29T20:19:59;-1.70;99.90
58983;DHT22;44771;49.982;8.560;2023-01-29T20:25:05;-1.70;99.90
58983;DHT22;44771;49.982;8.560;2023-01-29T20:30:08;-1.60;99.90
58983;DHT22;44771;49.982;8.560;2023-01-29T20:35:10;-1.60;99.90
58983;DHT22;44771;49.982;8.560;2023-01-29T20:40:15;-1.60;99.90
58983;DHT22;44771;49.982;8.560;2023-01-29T20:45:17;-1.50;99.90
58983;DHT22;44771;49.982;8.560;2023-01-29T20:50:20;-1.30;99.90
58983;DHT22;44771;49.982;8.560;2023-01-29T20:55:23;-1.10;99.90
58983;DHT22;44771;49.982;8.560;2023-01-29T21:00:25;-1.00;99.90
58983;DHT22;44771;49.982;8.560;2023-01-29T21:05:27;-0.90;99.90
58983;DHT22;44771;49.982;8.560;2023-01-29T21:10:30;-0.70;99.90
58983;DHT22;44771;49.982;8.560;2023-01-29T21:15:32;-0.70;99.90
58983;DHT22;44771;49.982;8.560;2023-01-29T21:20:37;-0.70;99.90
58983;DHT22;44771;49.982;8.560;2023-01-29T21:25:41;-0.60;99.90
58983;DHT22;44771;49.982;8.560;2023-01-29T21:30:43;-0.70;99.90
58983;DHT22;44771;49.982;8.560;2023-01-29T21:35:45;-0.60;99.90
58983;DHT22;44771;49.982;8.560;2023-01-29T21:40:49;-0.50;99.90
58983;DHT22;44771;49.982;8.560;2023-01-29T21:45:57;-0.50;99.90
58983;DHT22;44771;49.982;8.560;2023-01-29T21:51:00;-0.40;99.90
58983;DHT22;44771;49.982;8.560;2023-01-29T21:56:06;-0.40;99.90
58983;DHT22;44771;49.982;8.560;2023-01-29T22:07:02;-0.30;99.90
58983;DHT22;44771;49.982;8.560;2023-01-29T22:12:06;-0.30;99.90
58983;DHT22;44771;49.982;8.560;2023-01-29T22:17:08;-0.30;99.90
58983;DHT22;44771;49.982;8.560;2023-01-29T22:22:11;-0.30;99.90
58983;DHT22;44771;49.982;8.560;2023-01-29T22:27:15;-0.30;99.90
58983;DHT22;44771;49.982;8.560;2023-01-29T22:32:20;-0.30;99.90
58983;DHT22;44771;49.982;8.560;2023-01-29T22:37:31;-0.30;99.90
58983;DHT22;44771;49.982;8.560;2023-01-29T22:42:43;-0.20;99.90
58983;DHT22;44771;49.982;8.560;2023-01-29T22:47:45;-0.30;99.90
58983;DHT22;44771;49.982;8.560;2023-01-29T22:53:23;-0.30;99.90
58983;DHT22;44771;49.982;8.560;2023-01-29T22:58:27;-0.30;99.90
58983;DHT22;44771;49.982;8.560;2023-01-29T23:04:02;-0.20;99.90
58983;DHT22;44771;49.982;8.560;2023-01-29T23:09:14;-0.20;99.90
58983;DHT22;44771;49.982;8.560;2023-01-29T23:14:18;-0.20;99.90
58983;DHT22;44771;49.982;8.560;2023-01-29T23:19:20;-0.10;99.90
58983;DHT22;44771;49.982;8.560;2023-01-29T23:24:22;-0.10;99.90
58983;DHT22;44771;49.982;8.560;2023-01-29T23:29:26;-0.10;99.90
58983;DHT22;44771;49.982;8.560;2023-01-29T23:34:28;0.00;99.90
58983;DHT22;44771;49.982;8.560;2023-01-29T23:39:29;0.00;99.90
58983;DHT22;44771;49.982;8.560;2023-01-29T23:44:33;0.00;99.90
58983;DHT22;44771;49.982;8.560;2023-01-29T23:49:34;0.00;99.90
58983;DHT22;44771;49.982;8.560;2023-01-29T23:54:36;0.10;99.90
58983;DHT22;44771;49.982;8.560;2023-01-29T23:59:39;0.10;99.90
